Time;durP1;ratioP1;P1;durP2;ratioP2;P2;SDS_P1;SDS_P2;PMS_P1;PMS_P2;Temp;Humidity;BMP_temperature;BMP_pressure;BME280_temperature;BME280_humidity;BME280_pressure;Samples;Min_cycle;Max_cycle;Signal;HPM_P1;HPM_P2
2021/01/25 00:02:12;;;;;;;26.75;15.07;;;;;;;0.71;100.00;98981.53;5040936;28;20049;-55
2021/01/25 00:04:40;;;;;;;30.63;15.82;;;;;;;0.72;100.00;98982.34;5042667;28;20045;-48
2021/01/25 00:07:07;;;;;;;30.67;15.45;;;;;;;0.79;100.00;98986.06;5044002;28;20040;-53
2021/01/25 00:09:33;;;;;;;31.73;15.45;;;;;;;0.70;100.00;98989.56;5044427;28;20357;-53
2021/01/25 00:12:00;;;;;;;33.63;17.17;;;;;;;0.62;100.00;98985.81;5044274;28;20044;-53
2021/01/25 00:14:27;;;;;;;30.90;16.30;;;;;;;0.76;100.00;98991.59;5045122;28;20049;-50
2021/01/25 00:16:54;;;;;;;31.65;15.48;;;;;;;0.69;100.00;98993.97;5045159;28;20037;-52
2021/01/25 00:19:21;;;;;;;25.90;14.63;;;;;;;0.66;100.00;98991.63;5048512;28;20051;-53
2021/01/25 00:21:49;;;;;;;34.22;15.75;;;;;;;0.62;100.00;98993.72;5044185;28;20067;-53
2021/01/25 00:24:17;;;;;;;30.35;15.80;;;;;;;0.55;100.00;98997.06;5043177;28;20048;-53
2021/01/25 00:26:44;;;;;;;32.60;15.02;;;;;;;0.44;100.00;98990.19;5045504;28;20388;-52
2021/01/25 00:29:11;;;;;;;34.05;15.30;;;;;;;0.35;100.00;98999.75;5046096;28;20460;-56
2021/01/25 00:31:38;;;;;;;28.55;15.82;;;;;;;0.33;100.00;98994.63;5044895;28;20041;-52
2021/01/25 00:34:06;;;;;;;30.00;15.02;;;;;;;0.28;100.00;98994.22;5040216;28;20073;-55
2021/01/25 00:36:32;;;;;;;32.65;15.55;;;;;;;0.15;100.00;99001.59;5048931;28;20060;-54
2021/01/25 00:39:00;;;;;;;32.17;16.35;;;;;;;0.12;100.00;99009.75;5044147;28;20120;-56
2021/01/25 00:41:28;;;;;;;35.67;16.65;;;;;;;0.03;100.00;99008.78;5046169;28;20073;-55
2021/01/25 00:43:55;;;;;;;29.67;16.00;;;;;;;0.09;100.00;99012.66;5043633;28;20043;-54
2021/01/25 00:46:21;;;;;;;34.55;16.65;;;;;;;0.06;100.00;99008.50;5046212;28;20032;-49
2021/01/25 00:48:48;;;;;;;32.58;16.05;;;;;;;0.11;100.00;99011.53;5043602;28;20547;-52
2021/01/25 00:51:15;;;;;;;38.35;17.75;;;;;;;-0.05;100.00;99014.72;5044575;28;20041;-54
2021/01/25 00:53:42;;;;;;;31.50;15.85;;;;;;;-0.09;100.00;99010.72;5045154;28;20097;-51
2021/01/25 00:56:11;;;;;;;33.17;16.30;;;;;;;-0.16;100.00;99012.25;5044612;28;20041;-52
2021/01/25 00:58:38;;;;;;;32.65;15.23;;;;;;;-0.21;100.00;99012.66;5050210;28;20464;-53
2021/01/25 01:01:06;;;;;;;37.83;17.63;;;;;;;-0.29;100.00;99016.94;5042808;28;20029;-53
2021/01/25 01:03:33;;;;;;;33.85;16.05;;;;;;;-0.36;100.00;99014.84;5044639;28;20053;-50
2021/01/25 01:06:00;;;;;;;35.58;16.40;;;;;;;-0.31;100.00;99013.63;5046092;28;20045;-52
2021/01/25 01:08:27;;;;;;;34.17;16.17;;;;;;;-0.39;100.00;99017.75;5042089;28;20052;-53
2021/01/25 01:10:54;;;;;;;34.08;17.83;;;;;;;-0.43;100.00;99023.41;5045070;28;20499;-53
2021/01/25 01:13:21;;;;;;;39.97;17.50;;;;;;;-0.42;100.00;99028.53;5040791;28;20052;-52
2021/01/25 01:15:48;;;;;;;29.98;15.88;;;;;;;-0.31;100.00;99027.56;5045849;28;20417;-53
2021/01/25 01:18:15;;;;;;;34.75;17.02;;;;;;;-0.31;100.00;99026.72;5047934;28;20048;-54
2021/01/25 01:20:43;;;;;;;30.25;15.43;;;;;;;-0.37;100.00;99028.94;5051694;28;20045;-53
2021/01/25 01:23:10;;;;;;;40.15;17.42;;;;;;;-0.29;100.00;99033.50;5046359;28;20441;-53
2021/01/25 01:25:36;;;;;;;41.25;15.77;;;;;;;-0.44;100.00;99037.47;5047910;28;20041;-52
2021/01/25 01:28:03;;;;;;;40.00;17.48;;;;;;;-0.65;100.00;99038.44;5048321;28;20045;-51
2021/01/25 01:30:31;;;;;;;37.30;18.42;;;;;;;-0.75;100.00;99045.41;5047219;28;20733;-51
2021/01/25 01:32:58;;;;;;;41.60;19.10;;;;;;;-0.90;100.00;99048.41;5046183;28;20317;-54
2021/01/25 01:35:25;;;;;;;35.13;16.95;;;;;;;-0.92;100.00;99054.75;5045282;28;20041;-56
2021/01/25 01:38:00;;;;;;;;;;;;;;;-0.91;100.00;99054.63;5048337;28;20337;-53
2021/01/25 01:40:27;;;;;;;34.78;15.68;;;;;;;-0.88;100.00;99056.13;5046464;28;19921;-51
2021/01/25 01:42:54;;;;;;;36.15;16.10;;;;;;;-0.71;100.00;99063.38;5043202;28;20465;-52
2021/01/25 01:45:21;;;;;;;33.53;16.00;;;;;;;-0.71;100.00;99063.38;5049101;28;20041;-54
2021/01/25 01:47:49;;;;;;;37.45;16.70;;;;;;;-0.67;100.00;99057.88;5042837;28;20052;-52
2021/01/25 01:50:16;;;;;;;31.73;14.73;;;;;;;-0.83;100.00;99071.50;5044933;28;20500;-54
2021/01/25 01:52:43;;;;;;;33.47;15.35;;;;;;;-0.89;100.00;99073.66;5045923;28;20037;-53
2021/01/25 01:55:11;;;;;;;34.58;15.98;;;;;;;-0.92;100.00;99075.72;5047248;28;20056;-56
2021/01/25 01:57:38;;;;;;;34.38;16.17;;;;;;;-1.02;100.00;99080.09;5045506;28;20044;-53
2021/01/25 02:00:06;;;;;;;33.63;16.08;;;;;;;-1.06;100.00;99080.34;5048910;28;20033;-55
2021/01/25 02:02:34;;;;;;;34.50;15.45;;;;;;;-0.98;100.00;99076.25;5048543;28;20045;-52
2021/01/25 02:05:02;;;;;;;33.35;16.40;;;;;;;-0.89;100.00;99080.72;5042272;28;20048;-49
2021/01/25 02:07:29;;;;;;;34.50;16.35;;;;;;;-0.95;100.00;99087.31;5051102;28;20425;-54
2021/01/25 02:09:59;;;;;;;36.95;16.30;;;;;;;-0.98;100.00;99092.78;5047621;28;20060;-54
2021/01/25 02:12:25;;;;;;;39.85;18.52;;;;;;;-1.01;100.00;99095.69;5044793;28;20322;-54
2021/01/25 02:14:52;;;;;;;38.40;17.77;;;;;;;-0.98;100.00;99098.03;5049225;28;20103;-53
2021/01/25 02:17:19;;;;;;;39.10;19.08;;;;;;;-1.01;100.00;99105.34;5045812;28;20037;-54
2021/01/25 02:19:51;;;;;;;42.55;18.92;;;;;;;-1.01;100.00;99111.41;5048506;28;20073;-54
2021/01/25 02:22:44;;;;;;;37.08;18.50;;;;;;;-0.96;100.00;99113.66;5043820;28;20044;-56
2021/01/25 02:25:16;;;;;;;41.42;20.05;;;;;;;-0.84;100.00;99109.97;5034002;28;20041;-54
2021/01/25 02:27:45;;;;;;;43.15;19.20;;;;;;;-0.67;100.00;99115.56;5047582;28;20041;-55
2021/01/25 02:30:13;;;;;;;43.67;19.42;;;;;;;-0.56;100.00;99126.75;5047922;28;20053;-56
2021/01/25 02:32:40;;;;;;;39.13;18.25;;;;;;;-0.46;100.00;99121.56;5044217;28;20045;-54
2021/01/25 02:35:10;;;;;;;40.13;17.83;;;;;;;-0.32;100.00;99115.09;5048628;28;20051;-55
2021/01/25 02:37:41;;;;;;;35.17;17.48;;;;;;;-0.27;100.00;99110.28;5050201;28;20056;-57
2021/01/25 02:40:11;;;;;;;31.05;15.88;;;;;;;-0.26;100.00;99108.50;5043625;28;20048;-56
2021/01/25 02:42:39;;;;;;;33.13;16.70;;;;;;;-0.28;100.00;99118.31;5040967;28;20047;-55
2021/01/25 02:45:08;;;;;;;31.52;16.48;;;;;;;-0.35;100.00;99118.81;5049209;28;20052;-56
2021/01/25 02:47:36;;;;;;;28.58;15.68;;;;;;;-0.36;100.00;99129.44;5044328;28;20076;-57
2021/01/25 02:50:04;;;;;;;38.35;17.08;;;;;;;-0.37;100.00;99136.50;5043864;28;20056;-57
2021/01/25 02:52:32;;;;;;;33.40;16.33;;;;;;;-0.32;100.00;99137.91;5047020;28;20083;-57
2021/01/25 02:55:01;;;;;;;31.63;16.27;;;;;;;-0.37;100.00;99140.91;5048215;28;20061;-57
2021/01/25 02:57:28;;;;;;;30.33;16.35;;;;;;;-0.34;100.00;99148.53;5045664;28;20051;-57
2021/01/25 02:59:55;;;;;;;28.10;14.57;;;;;;;-0.33;100.00;99150.16;5047129;28;20037;-55
2021/01/25 03:02:22;;;;;;;24.33;14.90;;;;;;;-0.35;100.00;99146.84;5045761;28;20047;-57
2021/01/25 03:04:49;;;;;;;33.95;15.02;;;;;;;-0.33;100.00;99151.97;5046921;28;20086;-58
2021/01/25 03:07:16;;;;;;;30.35;15.55;;;;;;;-0.33;100.00;99150.16;5044342;28;20041;-57
2021/01/25 03:09:43;;;;;;;32.10;15.43;;;;;;;-0.37;100.00;99157.50;5044391;28;20048;-57
2021/01/25 03:12:11;;;;;;;31.08;17.10;;;;;;;-0.29;100.00;99162.06;5043407;28;20052;-57
2021/01/25 03:14:43;;;;;;;31.75;16.80;;;;;;;-0.31;100.00;99164.00;5047617;28;20318;-59
2021/01/25 03:17:10;;;;;;;35.40;17.15;;;;;;;-0.05;100.00;99163.50;5045527;28;20034;-57
2021/01/25 03:19:38;;;;;;;34.50;18.48;;;;;;;-0.22;100.00;99171.03;5051186;28;20114;-56
2021/01/25 03:22:05;;;;;;;34.45;16.83;;;;;;;-0.24;100.00;99164.25;5045233;28;20048;-57
2021/01/25 03:24:32;;;;;;;31.73;16.52;;;;;;;-0.20;100.00;99168.28;5045875;28;20056;-56
2021/01/25 03:26:59;;;;;;;40.38;17.40;;;;;;;-0.17;100.00;99170.66;5044186;28;20340;-58
2021/01/25 03:29:28;;;;;;;35.15;16.90;;;;;;;-0.22;100.00;99170.22;5044096;28;20037;-57
2021/01/25 03:31:54;;;;;;;34.15;16.45;;;;;;;0.10;100.00;99177.91;5045238;28;20045;-54
2021/01/25 03:34:22;;;;;;;28.13;15.93;;;;;;;0.01;100.00;99178.69;5039876;28;20458;-58
2021/01/25 03:36:49;;;;;;;32.30;16.33;;;;;;;-0.09;100.00;99189.16;5048412;28;20044;-56
2021/01/25 03:39:16;;;;;;;34.78;16.98;;;;;;;-0.13;100.00;99187.78;5042107;28;20476;-57
2021/01/25 03:41:43;;;;;;;29.17;14.65;;;;;;;-0.17;100.00;99189.03;5046569;28;20037;-58
2021/01/25 03:44:10;;;;;;;33.40;15.57;;;;;;;-0.27;100.00;99190.78;5042436;28;20055;-57
2021/01/25 03:46:37;;;;;;;29.55;16.75;;;;;;;-0.27;100.00;99191.63;5050564;28;20041;-57
2021/01/25 03:49:04;;;;;;;30.70;16.23;;;;;;;-0.28;100.00;99199.63;5042929;28;20048;-55
2021/01/25 03:51:31;;;;;;;32.22;17.23;;;;;;;-0.23;100.00;99207.91;5045223;28;20061;-56
2021/01/25 03:54:01;;;;;;;37.03;18.60;;;;;;;-0.26;100.00;99209.00;5044679;28;20056;-57
2021/01/25 03:56:28;;;;;;;35.28;19.15;;;;;;;-0.20;100.00;99212.88;5043507;28;20056;-56
2021/01/25 03:58:55;;;;;;;31.90;16.92;;;;;;;-0.23;100.00;99208.75;5046217;28;20455;-56
2021/01/25 04:01:21;;;;;;;38.17;18.40;;;;;;;-0.22;100.00;99220.91;5045717;28;20129;-53
2021/01/25 04:03:48;;;;;;;40.45;18.60;;;;;;;-0.26;100.00;99237.03;5044234;28;20116;-56
2021/01/25 04:06:17;;;;;;;30.75;17.08;;;;;;;-0.15;100.00;99236.94;5046752;28;20041;-57
2021/01/25 04:08:43;;;;;;;51.67;21.55;;;;;;;-0.38;100.00;99247.63;5044900;28;20052;-57
2021/01/25 04:11:11;;;;;;;33.67;17.58;;;;;;;-0.44;100.00;99256.03;5047364;28;20300;-57
2021/01/25 04:13:38;;;;;;;37.90;18.95;;;;;;;-0.42;100.00;99258.53;5039373;28;20310;-57
2021/01/25 04:16:05;;;;;;;38.38;18.02;;;;;;;-0.45;100.00;99251.75;5045372;28;20045;-56
2021/01/25 04:18:33;;;;;;;30.52;15.38;;;;;;;-0.17;100.00;99262.50;5210272;23;20143;-55
2021/01/25 04:21:00;;;;;;;28.25;13.68;;;;;;;-0.16;100.00;99255.44;5024990;28;20413;-55
2021/01/25 04:23:27;;;;;;;33.63;15.65;;;;;;;-0.23;100.00;99266.50;5027233;28;20421;-54
2021/01/25 04:25:54;;;;;;;26.85;14.10;;;;;;;-0.41;100.00;99273.28;5027274;28;20049;-55
2021/01/25 04:28:22;;;;;;;32.33;15.25;;;;;;;-0.36;100.00;99269.31;5028115;28;20340;-54
2021/01/25 04:30:49;;;;;;;30.55;15.90;;;;;;;-0.50;100.00;99282.75;5025641;28;20054;-53
2021/01/25 04:33:18;;;;;;;32.90;15.48;;;;;;;-0.58;100.00;99283.41;5024423;28;20057;-55
2021/01/25 04:35:45;;;;;;;32.45;16.35;;;;;;;-0.32;100.00;99283.00;5025179;28;20344;-55
2021/01/25 04:38:12;;;;;;;29.88;15.65;;;;;;;-0.45;100.00;99277.16;5026452;28;20324;-55
2021/01/25 04:40:39;;;;;;;30.52;16.13;;;;;;;-0.46;100.00;99283.34;5029731;28;20045;-55
2021/01/25 04:43:06;;;;;;;36.25;16.77;;;;;;;-0.55;100.00;99283.16;5023913;28;20057;-54
2021/01/25 04:45:34;;;;;;;35.45;16.92;;;;;;;-0.64;100.00;99293.59;5029513;28;20037;-54
2021/01/25 04:48:01;;;;;;;30.80;15.77;;;;;;;-0.46;100.00;99297.28;5024785;28;20041;-53
2021/01/25 04:50:30;;;;;;;29.40;15.55;;;;;;;-0.53;100.00;99298.75;5024187;28;20073;-53
2021/01/25 04:52:57;;;;;;;32.13;15.88;;;;;;;-0.73;100.00;99306.50;5023078;28;20044;-53
2021/01/25 04:55:25;;;;;;;27.58;14.82;;;;;;;-1.00;100.00;99308.78;5026909;28;20464;-55
2021/01/25 04:57:53;;;;;;;32.10;15.75;;;;;;;-0.82;100.00;99317.75;5022553;28;20041;-55
2021/01/25 05:00:21;;;;;;;27.77;15.07;;;;;;;-0.60;100.00;99326.47;5026145;28;20056;-53
2021/01/25 05:02:49;;;;;;;30.58;15.40;;;;;;;-0.51;100.00;99323.09;5020559;28;20038;-53
2021/01/25 05:05:16;;;;;;;29.20;15.15;;;;;;;-0.44;100.00;99332.09;5023994;28;20119;-53
2021/01/25 05:07:43;;;;;;;39.20;18.65;;;;;;;-0.36;100.00;99340.13;5027673;28;20061;-54
2021/01/25 05:10:11;;;;;;;34.25;16.58;;;;;;;-0.39;100.00;99345.63;5025767;28;20041;-54
2021/01/25 05:12:46;;;;;;;34.97;18.38;;;;;;;-0.48;100.00;99343.81;5023472;28;20049;-54
2021/01/25 05:15:25;;;;;;;33.03;17.83;;;;;;;-0.51;100.00;99351.94;5028700;28;20441;-55
2021/01/25 05:17:52;;;;;;;34.83;18.50;;;;;;;-0.44;100.00;99349.59;5022065;28;20048;-53
2021/01/25 05:20:24;;;;;;;36.00;17.42;;;;;;;-0.42;100.00;99355.56;5024930;28;21357;-56
2021/01/25 05:22:51;;;;;;;37.55;20.83;;;;;;;-0.43;100.00;99365.22;5023372;28;20332;-57
2021/01/25 05:25:26;;;;;;;43.63;21.23;;;;;;;-0.60;100.00;99368.41;5022343;28;20607;-53
2021/01/25 05:27:53;;;;;;;;;;;;;;;-0.64;100.00;99367.00;5029267;28;20048;-53
2021/01/25 05:30:24;;;;;;;66.43;25.63;;;;;;;-0.66;100.00;99380.25;5027264;28;19951;-53
2021/01/25 05:32:54;;;;;;;61.70;25.65;;;;;;;-0.66;100.00;99388.09;5023958;28;20034;-53
2021/01/25 05:35:23;;;;;;;64.45;26.13;;;;;;;-0.63;100.00;99389.66;5024866;28;20050;-53
2021/01/25 05:37:52;;;;;;;66.13;29.13;;;;;;;-0.61;100.00;99390.34;5022740;28;20042;-52
2021/01/25 05:40:21;;;;;;;58.65;25.85;;;;;;;-0.59;100.00;99396.31;5007970;28;20045;-54
2021/01/25 05:42:48;;;;;;;58.88;25.35;;;;;;;-0.61;100.00;99399.06;5022128;28;20332;-54
2021/01/25 05:45:16;;;;;;;67.88;27.25;;;;;;;-0.62;100.00;99404.44;5025667;28;20053;-54
2021/01/25 05:47:44;;;;;;;66.00;26.25;;;;;;;-0.62;100.00;99405.25;5022333;28;20046;-54
2021/01/25 05:50:24;;;;;;;61.60;28.75;;;;;;;-0.64;100.00;99408.97;5024466;28;20336;-52
2021/01/25 05:52:52;;;;;;;68.40;29.02;;;;;;;-0.61;100.00;99413.94;5026295;28;20048;-54
2021/01/25 05:55:20;;;;;;;71.60;28.75;;;;;;;-0.58;100.00;99413.69;5023175;28;20211;-53
2021/01/25 05:57:46;;;;;;;93.90;34.53;;;;;;;-0.59;100.00;99425.16;5026407;28;20052;-54
2021/01/25 06:00:14;;;;;;;85.47;33.67;;;;;;;-0.58;100.00;99424.19;5021795;28;20825;-52
2021/01/25 06:02:46;;;;;;;77.43;30.20;;;;;;;-0.55;100.00;99431.81;5023754;28;20169;-53
2021/01/25 06:05:26;;;;;;;72.20;29.83;;;;;;;-0.55;100.00;99432.66;5027908;28;20079;-53
2021/01/25 06:07:58;;;;;;;65.95;26.50;;;;;;;-0.51;100.00;99435.88;5028406;28;20443;-53
2021/01/25 06:10:28;;;;;;;97.45;33.10;;;;;;;-0.53;100.00;99437.75;5030012;28;20038;-54
2021/01/25 06:13:02;;;;;;;63.15;24.27;;;;;;;-0.37;100.00;99442.56;5026403;28;20068;-51
2021/01/25 06:15:30;;;;;;;58.72;24.85;;;;;;;-0.30;100.00;99448.16;5030672;28;20439;-52
2021/01/25 06:17:58;;;;;;;58.83;25.92;;;;;;;-0.37;100.00;99451.28;5028049;28;20041;-53
2021/01/25 06:20:27;;;;;;;60.50;26.45;;;;;;;-0.31;100.00;99455.22;5029406;28;20045;-53
2021/01/25 06:22:57;;;;;;;58.65;24.90;;;;;;;-0.29;100.00;99460.31;5029693;28;20326;-53
2021/01/25 06:25:25;;;;;;;62.88;27.98;;;;;;;-0.26;100.00;99453.00;5028138;28;20050;-52
2021/01/25 06:27:55;;;;;;;64.35;27.55;;;;;;;-0.20;100.00;99464.78;5029548;28;20147;-52
2021/01/25 06:30:25;;;;;;;61.92;25.55;;;;;;;-0.23;100.00;99465.06;5026803;28;20325;-54
2021/01/25 06:32:52;;;;;;;71.60;29.92;;;;;;;-0.14;100.00;99469.56;5025126;28;20037;-52
2021/01/25 06:35:20;;;;;;;77.30;34.60;;;;;;;-0.10;100.00;99486.72;5026517;28;20113;-53
2021/01/25 06:37:54;;;;;;;76.15;32.60;;;;;;;-0.09;100.00;99487.53;5028842;28;20337;-53
2021/01/25 06:40:26;;;;;;;96.78;38.70;;;;;;;0.01;100.00;99492.84;5026821;28;20042;-51
2021/01/25 06:42:54;;;;;;;78.90;32.08;;;;;;;-0.11;100.00;99490.28;5027019;28;20047;-51
2021/01/25 06:45:24;;;;;;;84.38;31.45;;;;;;;-0.14;100.00;99494.94;5030627;28;20064;-53
2021/01/25 06:47:52;;;;;;;111.25;40.58;;;;;;;-0.04;100.00;99501.94;5026281;28;20052;-51
2021/01/25 06:50:20;;;;;;;104.28;42.08;;;;;;;-0.04;100.00;99507.19;5028724;28;20069;-52
2021/01/25 06:52:49;;;;;;;112.40;42.80;;;;;;;-0.02;100.00;99513.13;5024630;28;20432;-52
2021/01/25 06:55:17;;;;;;;107.65;38.75;;;;;;;0.05;100.00;99517.91;5029965;28;20361;-51
2021/01/25 06:57:47;;;;;;;100.55;37.95;;;;;;;0.02;100.00;99521.59;5029219;28;20057;-52
2021/01/25 07:00:19;;;;;;;98.10;35.17;;;;;;;0.05;100.00;99531.84;5026722;28;20265;-50
2021/01/25 07:02:58;;;;;;;92.00;33.78;;;;;;;0.05;100.00;99554.66;5024570;28;20052;-51
2021/01/25 07:05:26;;;;;;;86.70;31.08;;;;;;;0.05;100.00;99552.03;5025143;28;20337;-50
2021/01/25 07:08:18;;;;;;;71.22;29.55;;;;;;;0.05;100.00;99567.78;5026375;28;20042;-51
2021/01/25 07:11:03;;;;;;;73.10;29.02;;;;;;;0.05;100.00;99575.66;5027949;28;20041;-50
2021/01/25 07:13:32;;;;;;;61.08;24.13;;;;;;;0.05;100.00;99579.09;5024450;28;20380;-52
2021/01/25 07:15:59;;;;;;;58.22;27.95;;;;;;;0.05;100.00;99580.91;5027213;28;21197;-51
2021/01/25 07:18:28;;;;;;;56.80;24.98;;;;;;;0.03;100.00;99585.44;5025923;28;20037;-52
2021/01/25 07:20:57;;;;;;;48.45;19.67;;;;;;;0.05;100.00;99594.03;5022735;28;20044;-51
2021/01/25 07:23:25;;;;;;;40.75;16.42;;;;;;;0.10;100.00;99594.47;5023809;28;20045;-56
2021/01/25 07:25:56;;;;;;;48.33;21.35;;;;;;;0.03;100.00;99602.03;5027776;28;20108;-47
2021/01/25 07:28:25;;;;;;;49.53;20.50;;;;;;;0.09;100.00;99605.94;5027545;28;20041;-51
2021/01/25 07:30:52;;;;;;;46.08;19.70;;;;;;;0.08;100.00;99609.53;5023752;28;20037;-49
2021/01/25 07:33:19;;;;;;;47.53;23.00;;;;;;;0.10;100.00;99612.84;5024956;28;20038;-49
2021/01/25 07:35:46;;;;;;;43.50;18.48;;;;;;;0.13;100.00;99620.50;5028511;28;20033;-53
2021/01/25 07:38:14;;;;;;;45.08;19.15;;;;;;;0.17;100.00;99627.13;5027351;28;20042;-51
2021/01/25 07:40:40;;;;;;;46.53;21.80;;;;;;;0.14;100.00;99635.28;5029796;28;20049;-55
2021/01/25 07:43:07;;;;;;;46.22;22.55;;;;;;;0.13;100.00;99644.94;5021377;28;20042;-52
2021/01/25 07:45:35;;;;;;;42.65;19.98;;;;;;;0.14;100.00;99649.25;5026474;28;20058;-52
2021/01/25 07:48:02;;;;;;;45.33;21.20;;;;;;;0.19;100.00;99653.28;5024572;28;20046;-53
2021/01/25 07:50:29;;;;;;;44.90;23.50;;;;;;;0.18;100.00;99668.19;5026310;28;20051;-52
2021/01/25 07:52:57;;;;;;;45.08;21.17;;;;;;;0.20;100.00;99676.81;5023133;28;20048;-52
2021/01/25 07:55:24;;;;;;;43.05;19.65;;;;;;;0.22;100.00;99682.75;5029533;28;20440;-50
2021/01/25 07:57:51;;;;;;;39.53;15.98;;;;;;;0.21;100.00;99691.56;5028669;28;20046;-53
2021/01/25 08:00:20;;;;;;;47.20;19.23;;;;;;;0.21;100.00;99698.63;5027954;28;20057;-49
2021/01/25 08:02:53;;;;;;;44.67;19.65;;;;;;;0.23;100.00;99702.81;5028190;28;20181;-49
2021/01/25 08:05:24;;;;;;;41.95;21.05;;;;;;;0.25;100.00;99721.88;5025047;28;20060;-50
2021/01/25 08:07:52;;;;;;;41.22;20.63;;;;;;;0.25;100.00;99718.44;5028473;28;20045;-52
2021/01/25 08:10:19;;;;;;;44.75;20.70;;;;;;;0.21;100.00;99728.34;5023100;28;20038;-52
2021/01/25 08:12:47;;;;;;;43.45;19.40;;;;;;;0.23;100.00;99729.06;5025855;28;20420;-52
2021/01/25 08:15:21;;;;;;;51.72;23.23;;;;;;;0.27;100.00;99735.75;5026947;28;20045;-53
2021/01/25 08:17:52;;;;;;;49.47;25.83;;;;;;;0.25;100.00;99740.28;5027713;28;20037;-51
2021/01/25 08:20:21;;;;;;;43.35;20.73;;;;;;;0.28;100.00;99741.81;5026765;28;20065;-50
2021/01/25 08:22:53;;;;;;;29.27;13.35;;;;;;;0.27;100.00;99740.16;5024746;28;20049;-51
2021/01/25 08:25:25;;;;;;;28.10;14.80;;;;;;;0.28;100.00;99752.31;5025590;28;20057;-54
2021/01/25 08:27:59;;;;;;;24.77;13.38;;;;;;;0.26;100.00;99754.25;5023872;28;20143;-51
2021/01/25 08:30:33;;;;;;;17.77;9.10;;;;;;;0.30;100.00;99761.75;5023795;28;20434;-54
2021/01/25 08:33:02;;;;;;;20.25;9.25;;;;;;;0.30;100.00;99758.31;5025267;28;20468;-53
2021/01/25 08:35:34;;;;;;;21.92;12.77;;;;;;;0.26;100.00;99764.75;5024655;28;20133;-52
2021/01/25 08:38:22;;;;;;;26.23;14.23;;;;;;;0.28;100.00;99776.78;5023859;28;20441;-53
2021/01/25 08:40:50;;;;;;;26.35;13.20;;;;;;;0.25;100.00;99782.28;5025558;28;20049;-52
2021/01/25 08:43:20;;;;;;;31.77;16.40;;;;;;;0.25;100.00;99795.41;5018090;28;20133;-52
2021/01/25 08:45:48;;;;;;;29.90;12.98;;;;;;;0.28;100.00;99802.22;5025478;28;20038;-53
2021/01/25 08:48:15;;;;;;;36.95;17.13;;;;;;;0.28;100.00;99796.97;5025018;28;20049;-52
2021/01/25 08:50:42;;;;;;;33.60;16.50;;;;;;;0.31;100.00;99810.72;5023349;28;20042;-50
2021/01/25 08:53:15;;;;;;;36.00;17.65;;;;;;;0.25;100.00;99812.97;5024643;28;20034;-53
2021/01/25 08:55:43;;;;;;;31.65;15.85;;;;;;;0.29;100.00;99823.13;5021856;28;20040;-51
2021/01/25 08:58:25;;;;;;;32.78;15.00;;;;;;;0.30;100.00;99827.41;5023411;28;20103;-50
2021/01/25 09:00:53;;;;;;;30.83;14.52;;;;;;;0.32;100.00;99836.00;5007924;28;20052;-51
2021/01/25 09:03:20;;;;;;;33.33;16.42;;;;;;;0.32;100.00;99832.53;5023726;28;20436;-47
2021/01/25 09:05:47;;;;;;;34.28;17.92;;;;;;;0.33;100.00;99839.47;5022495;28;20037;-51
2021/01/25 09:08:14;;;;;;;32.80;15.48;;;;;;;0.39;100.00;99840.78;5024593;28;20042;-48
2021/01/25 09:10:41;;;;;;;34.20;15.60;;;;;;;0.36;100.00;99848.91;5022520;28;20049;-49
2021/01/25 09:13:08;;;;;;;33.08;16.40;;;;;;;0.36;100.00;99852.38;5023006;28;20041;-48
2021/01/25 09:15:38;;;;;;;29.33;15.73;;;;;;;0.43;100.00;99861.44;5024953;28;20037;-50
2021/01/25 09:18:07;;;;;;;30.73;14.52;;;;;;;0.53;100.00;99866.78;5023641;28;20030;-50
2021/01/25 09:20:34;;;;;;;30.92;14.98;;;;;;;0.63;100.00;99870.34;5022240;28;20126;-49
2021/01/25 09:23:01;;;;;;;32.63;17.60;;;;;;;0.49;100.00;99876.69;5024512;28;20064;-52
2021/01/25 09:25:31;;;;;;;35.05;17.20;;;;;;;0.48;100.00;99887.31;5025522;28;20065;-50
2021/01/25 09:27:58;;;;;;;32.85;14.82;;;;;;;0.54;100.00;99893.91;5020564;28;20057;-52
2021/01/25 09:30:27;;;;;;;33.50;15.43;;;;;;;0.51;100.00;99894.97;5021402;28;20045;-48
2021/01/25 09:32:55;;;;;;;33.60;15.30;;;;;;;0.49;100.00;99904.78;5021739;28;20376;-54
2021/01/25 09:35:23;;;;;;;34.65;15.95;;;;;;;0.38;100.00;99910.03;5022666;28;20046;-50
2021/01/25 09:37:50;;;;;;;32.05;14.65;;;;;;;0.26;100.00;99923.16;5023187;28;20040;-50
2021/01/25 09:40:17;;;;;;;36.92;14.65;;;;;;;0.44;100.00;99917.41;5023473;28;20045;-48
2021/01/25 09:42:44;;;;;;;33.28;15.05;;;;;;;0.53;100.00;99931.66;5024369;28;20060;-53
2021/01/25 09:45:14;;;;;;;32.05;15.00;;;;;;;0.58;99.92;99930.34;5024156;28;20045;-54
2021/01/25 09:47:41;;;;;;;31.08;14.55;;;;;;;0.53;99.79;99929.84;5028148;28;20100;-53
2021/01/25 09:50:10;;;;;;;32.00;16.52;;;;;;;0.53;99.87;99944.78;5024140;28;20451;-49
2021/01/25 09:52:39;;;;;;;35.05;17.30;;;;;;;0.53;99.61;99948.25;5022543;28;20103;-51
2021/01/25 09:55:07;;;;;;;33.35;16.40;;;;;;;0.87;99.93;99952.66;5027094;28;20049;-54
2021/01/25 09:57:34;;;;;;;38.67;19.60;;;;;;;0.80;99.55;99968.88;5028343;28;20470;-50
2021/01/25 10:00:01;;;;;;;44.20;18.80;;;;;;;0.84;99.33;99966.88;5025828;28;20038;-50
2021/01/25 10:02:28;;;;;;;36.97;19.45;;;;;;;0.59;99.14;99976.66;5026754;28;20060;-51
2021/01/25 10:04:55;;;;;;;42.17;18.83;;;;;;;0.85;99.04;99976.41;5025965;28;20040;-51
2021/01/25 10:07:22;;;;;;;40.80;17.85;;;;;;;0.81;99.62;99986.34;5024759;28;20041;-51
2021/01/25 10:09:54;;;;;;;37.40;16.83;;;;;;;0.93;99.25;99987.16;5028985;28;20041;-48
2021/01/25 10:12:21;;;;;;;43.28;20.33;;;;;;;0.97;99.68;99991.22;5023666;28;20504;-50
2021/01/25 10:14:49;;;;;;;43.78;20.42;;;;;;;1.08;99.32;99986.91;5026153;28;20049;-56
2021/01/25 10:17:16;;;;;;;45.67;21.98;;;;;;;1.03;99.42;99996.00;5028889;28;20099;-54
2021/01/25 10:19:44;;;;;;;39.63;19.80;;;;;;;1.40;98.68;99989.56;5029852;28;20488;-52
2021/01/25 10:22:10;;;;;;;40.85;19.58;;;;;;;1.44;98.38;99996.25;5024512;28;20422;-54
2021/01/25 10:24:37;;;;;;;39.65;21.10;;;;;;;1.33;97.94;100005.03;5026262;28;20324;-55
2021/01/25 10:27:07;;;;;;;41.15;18.75;;;;;;;1.49;97.51;100006.41;5029640;28;20321;-53
2021/01/25 10:29:34;;;;;;;42.72;22.48;;;;;;;1.49;97.83;100015.16;5025039;28;20045;-54
2021/01/25 10:32:01;;;;;;;41.33;20.08;;;;;;;1.38;98.22;100012.56;5029719;28;20053;-50
2021/01/25 10:34:29;;;;;;;43.33;21.48;;;;;;;1.32;97.63;100027.03;5024727;28;20120;-53
2021/01/25 10:36:56;;;;;;;43.97;20.98;;;;;;;1.47;97.42;100027.59;5025209;28;20046;-54
2021/01/25 10:39:22;;;;;;;42.22;19.67;;;;;;;1.59;96.69;100032.81;5027449;28;20034;-51
2021/01/25 10:41:49;;;;;;;38.47;20.42;;;;;;;1.84;96.93;100048.31;5025208;28;20038;-50
2021/01/25 10:44:18;;;;;;;39.25;20.15;;;;;;;1.81;95.98;100043.28;5025106;28;20411;-49
2021/01/25 10:46:45;;;;;;;36.33;20.35;;;;;;;1.94;95.86;100048.38;5025864;28;20360;-54
2021/01/25 10:49:13;;;;;;;43.60;21.30;;;;;;;1.81;95.14;100056.44;5025792;28;20052;-51
2021/01/25 10:51:40;;;;;;;41.03;20.60;;;;;;;1.80;95.27;100060.06;5024788;28;20353;-49
2021/01/25 10:54:07;;;;;;;41.00;19.33;;;;;;;2.23;95.01;100063.59;5021994;28;20354;-52
2021/01/25 10:56:34;;;;;;;39.13;20.42;;;;;;;2.03;93.15;100063.44;5024244;28;20052;-52
2021/01/25 10:59:01;;;;;;;41.90;20.42;;;;;;;2.00;94.11;100068.97;5025240;28;20124;-54
2021/01/25 11:01:29;;;;;;;38.90;19.13;;;;;;;2.06;93.84;100072.88;5025041;28;20041;-52
2021/01/25 11:03:56;;;;;;;37.28;18.48;;;;;;;2.27;93.33;100075.53;5024290;28;20088;-51
2021/01/25 11:06:23;;;;;;;44.22;21.67;;;;;;;1.98;94.12;100073.50;5023899;28;20400;-52
2021/01/25 11:08:50;;;;;;;42.55;21.83;;;;;;;2.24;94.09;100074.00;5022058;28;20040;-48
2021/01/25 11:11:18;;;;;;;43.45;21.25;;;;;;;2.64;92.85;100071.63;5027077;28;20041;-51
2021/01/25 11:13:45;;;;;;;50.45;22.05;;;;;;;2.74;91.77;100068.06;5025280;28;20053;-51
2021/01/25 11:16:12;;;;;;;49.05;23.65;;;;;;;2.10;93.46;100073.44;5021446;28;20049;-48
2021/01/25 11:18:40;;;;;;;44.05;22.48;;;;;;;2.09;93.70;100071.81;5027784;28;20425;-49
2021/01/25 11:21:07;;;;;;;47.80;24.58;;;;;;;2.00;93.26;100078.63;5026298;28;20046;-50